CheckWX is a tool to help pilots better visualize weather data.  It is not intended as a substitute for an official pre-flight weather briefing.

16:14:19 UTC

KSVN METAR
Hunter AAF Airport
Savannah, Georgia, USA
Current

18 mins ago

KSVN 261556Z AUTO 27005KT 10SM CLR 34/21 A3011 RMK AO2 SLP199 T03400207 $
Observed
May-26 @ 15:56 UTC
Wind
  • 270° at 5 KTS
Visibility
10 SM
Flight Rules
VFR
Cloud Levels
  • Clear skies
Temperature
34°C / 93°F
Dewpoint
21°C / 70°F
Heat Index
37°C / 99°F
Humidity
47%
Altimeter
30.11" Hg
Pressure
1019.62 hPa
Previous

1 hour ago

KSVN 261456Z AUTO 23008KT 10SM CLR 32/20 A3012 RMK AO2 SLP202 T03220204 58006 $
Observed
May-26 @ 14:56 UTC
Wind
  • 230° at 8 KTS
Visibility
10 SM
Flight Rules
VFR
Cloud Levels
  • Clear skies
Temperature
32°C / 90°F
Dewpoint
20°C / 68°F
Heat Index
34°C / 94°F
Humidity
49%
Altimeter
30.12" Hg
Pressure
1020.02 hPa
Previous

2 hours ago

KSVN 261356Z AUTO 24007KT 10SM CLR 30/20 A3013 RMK AO2 SLP206 T03020198 $
Observed
May-26 @ 13:56 UTC
Wind
  • 240° at 7 KTS
Visibility
10 SM
Flight Rules
VFR
Cloud Levels
  • Clear skies
Temperature
30°C / 86°F
Dewpoint
20°C / 68°F
Heat Index
32°C / 89°F
Humidity
55%
Altimeter
30.13" Hg
Pressure
1020.32 hPa